createdAt,value
2023-04-15T00:00:54.824Z,25.00
2023-04-15T00:01:54.871Z,25.00
2023-04-15T00:02:54.962Z,25.00
2023-04-15T00:03:54.881Z,21.45
2023-04-15T00:04:54.880Z,24.19
2023-04-15T00:05:54.798Z,25.41
2023-04-15T00:06:54.827Z,25.00
2023-04-15T00:07:54.788Z,24.48
2023-04-15T00:08:54.770Z,25.09
2023-04-15T00:09:54.767Z,25.34
2023-04-15T00:10:54.800Z,26.61
2023-04-15T00:11:54.758Z,25.00
2023-04-15T00:12:54.755Z,25.00
2023-04-15T00:13:54.760Z,25.06
2023-04-15T00:14:54.750Z,27.79
2023-04-15T00:15:54.750Z,24.70
2023-04-15T00:16:54.761Z,26.42
2023-04-15T00:17:54.759Z,25.11
2023-04-15T00:18:54.748Z,25.05
2023-04-15T00:19:54.730Z,25.65
2023-04-15T00:20:54.737Z,24.74
2023-04-15T00:21:54.777Z,26.12
2023-04-15T00:22:54.734Z,25.75
2023-04-15T00:23:54.730Z,26.44
2023-04-15T00:24:54.730Z,25.99
2023-04-15T00:25:54.732Z,25.30
2023-04-15T00:26:54.751Z,26.17
2023-04-15T00:27:54.733Z,25.57
2023-04-15T00:28:54.729Z,25.00
2023-04-15T00:29:54.733Z,25.00
2023-04-15T00:30:54.737Z,28.09
2023-04-15T00:31:54.752Z,29.12
2023-04-15T00:32:54.768Z,29.28
2023-04-15T00:33:54.740Z,25.83
2023-04-15T00:34:54.743Z,25.00
2023-04-15T00:35:54.748Z,27.15
2023-04-15T00:36:54.747Z,26.27
2023-04-15T00:37:54.746Z,26.79
2023-04-15T00:38:54.747Z,25.00
2023-04-15T00:39:54.761Z,26.44
2023-04-15T00:40:54.781Z,29.67
2023-04-15T00:41:54.811Z,27.94
2023-04-15T00:42:54.871Z,27.86
2023-04-15T00:43:54.874Z,25.00
2023-04-15T00:44:54.902Z,25.73
2023-04-15T00:45:54.953Z,27.29
2023-04-15T00:46:54.958Z,26.02
2023-04-15T00:47:55.009Z,27.08
2023-04-15T00:48:55.019Z,26.02
2023-04-15T00:49:55.048Z,26.38
2023-04-15T00:50:55.077Z,25.40
2023-04-15T00:51:55.106Z,27.80
2023-04-15T00:52:55.155Z,27.67
2023-04-15T00:53:55.157Z,29.94
2023-04-15T00:54:55.204Z,27.13
2023-04-15T00:55:55.233Z,26.83
2023-04-15T00:56:55.252Z,27.83
2023-04-15T00:57:55.290Z,27.47
2023-04-15T00:58:55.328Z,27.40
2023-04-15T00:59:55.335Z,27.65
2023-04-15T01:00:55.356Z,27.43
2023-04-15T01:01:55.448Z,29.30
2023-04-15T01:02:55.628Z,27.12
2023-04-15T01:03:55.544Z,26.47
2023-04-15T01:04:55.478Z,26.47
2023-04-15T01:05:55.505Z,28.65
2023-04-15T01:06:55.534Z,28.07
2023-04-15T01:07:55.562Z,29.39
2023-04-15T01:08:55.588Z,26.99
2023-04-15T01:09:55.629Z,28.81
2023-04-15T01:10:55.650Z,26.51
2023-04-15T01:11:55.689Z,29.35
2023-04-15T01:12:55.716Z,29.80
2023-04-15T01:13:55.749Z,28.33
2023-04-15T01:14:55.812Z,26.47
2023-04-15T01:15:55.863Z,28.97
2023-04-15T01:16:55.851Z,26.90
2023-04-15T01:17:55.939Z,30.67
2023-04-15T01:18:55.925Z,28.20
2023-04-15T01:19:55.961Z,25.94
2023-04-15T01:20:56.000Z,27.22
2023-04-15T01:21:56.032Z,26.89
2023-04-15T01:22:56.071Z,27.61
2023-04-15T01:23:56.096Z,28.34
2023-04-15T01:24:56.122Z,29.27
2023-04-15T01:25:56.154Z,27.36
2023-04-15T01:26:56.184Z,28.46
2023-04-15T01:27:56.241Z,27.99
2023-04-15T01:28:56.366Z,27.72
2023-04-15T01:29:56.367Z,25.00
2023-04-15T01:30:56.454Z,28.79
2023-04-15T01:31:56.548Z,31.87
2023-04-15T01:32:56.606Z,28.22
2023-04-15T01:33:56.629Z,27.62
2023-04-15T01:34:56.686Z,29.28
2023-04-15T01:35:56.744Z,28.23
2023-04-15T01:36:56.819Z,29.64
2023-04-15T01:37:56.882Z,25.28
2023-04-15T01:38:56.940Z,28.29
2023-04-15T01:39:56.999Z,29.56
2023-04-15T01:40:57.060Z,25.00
2023-04-15T01:41:57.131Z,31.20
2023-04-15T01:42:57.197Z,27.95
2023-04-15T01:43:57.244Z,30.33
2023-04-15T01:44:57.277Z,31.10
2023-04-15T01:45:57.307Z,32.13
2023-04-15T01:46:57.482Z,26.54
2023-04-15T01:47:57.421Z,27.58
2023-04-15T01:48:57.426Z,28.19
2023-04-15T01:49:57.440Z,29.48
2023-04-15T01:50:57.489Z,27.64
2023-04-15T01:51:57.503Z,29.04
2023-04-15T01:52:57.544Z,30.19
2023-04-15T01:53:57.613Z,27.29
2023-04-15T01:54:57.623Z,26.97
2023-04-15T01:55:57.640Z,30.15
2023-04-15T01:56:57.681Z,27.15
2023-04-15T01:57:57.710Z,27.65
2023-04-15T01:58:57.804Z,29.75
2023-04-15T01:59:57.774Z,27.64
2023-04-15T02:00:57.824Z,27.15
2023-04-15T02:01:57.904Z,29.72
2023-04-15T02:02:57.966Z,29.92
2023-04-15T02:03:57.943Z,28.92
2023-04-15T02:04:57.938Z,29.22
2023-04-15T02:05:57.963Z,28.76
2023-04-15T02:06:58.018Z,29.58
2023-04-15T02:07:58.080Z,28.76
2023-04-15T02:08:58.142Z,29.23
2023-04-15T02:09:58.205Z,26.17
2023-04-15T02:10:58.264Z,29.53
2023-04-15T02:11:58.346Z,28.06
2023-04-15T02:12:58.396Z,28.14
2023-04-15T02:13:58.458Z,28.17
2023-04-15T02:14:58.514Z,26.87
2023-04-15T02:15:58.578Z,30.39
2023-04-15T02:16:58.689Z,26.21
2023-04-15T02:17:58.756Z,28.72
2023-04-15T02:18:58.902Z,25.59
2023-04-15T02:19:58.820Z,27.50
2023-04-15T02:20:59.038Z,28.00
2023-04-15T02:21:58.942Z,28.97
2023-04-15T02:22:59.006Z,29.76
2023-04-15T02:23:59.062Z,29.97
2023-04-15T02:24:59.124Z,29.56
2023-04-15T02:25:59.184Z,29.40
2023-04-15T02:26:59.238Z,28.24
2023-04-15T02:27:59.317Z,30.69
2023-04-15T02:28:59.597Z,29.45
2023-04-15T02:29:59.432Z,31.20
2023-04-15T02:30:59.495Z,26.53
2023-04-15T02:31:59.579Z,29.45
2023-04-15T02:32:59.668Z,29.28
2023-04-15T02:33:59.674Z,31.94
2023-04-15T02:34:59.736Z,25.22
2023-04-15T02:35:59.737Z,29.16
2023-04-15T02:36:59.772Z,29.11
2023-04-15T02:37:59.799Z,29.14
2023-04-15T02:38:59.997Z,27.46
2023-04-15T02:39:59.863Z,30.53
2023-04-15T02:40:59.891Z,29.27
2023-04-15T02:41:59.936Z,29.12
2023-04-15T02:42:59.958Z,28.51
2023-04-15T02:43:59.978Z,27.35
2023-04-15T02:45:00.007Z,27.27
2023-04-15T02:46:00.119Z,28.40
2023-04-15T02:47:00.063Z,29.68
2023-04-15T02:48:00.102Z,29.62
2023-04-15T02:49:00.468Z,31.03
2023-04-15T02:50:00.196Z,30.03
2023-04-15T02:51:00.219Z,30.34
2023-04-15T02:52:00.239Z,29.00
2023-04-15T02:53:00.241Z,31.62
2023-04-15T02:54:00.263Z,25.53
2023-04-15T02:55:00.310Z,28.75
2023-04-15T02:56:00.328Z,29.48
2023-04-15T02:57:00.363Z,28.58
2023-04-15T02:58:00.397Z,29.57
2023-04-15T02:59:00.600Z,29.97
2023-04-15T03:00:00.446Z,27.79
2023-04-15T03:01:00.508Z,25.87
2023-04-15T03:02:00.536Z,28.01
2023-04-15T03:03:00.634Z,29.26
2023-04-15T03:04:00.639Z,27.27
2023-04-15T03:05:00.582Z,27.88
2023-04-15T03:06:00.612Z,27.95
2023-04-15T03:07:00.674Z,28.03
2023-04-15T03:08:00.672Z,28.73
2023-04-15T03:09:00.879Z,28.97
2023-04-15T03:10:00.714Z,28.91
2023-04-15T03:11:00.769Z,26.41
2023-04-15T03:12:00.771Z,27.54
2023-04-15T03:13:00.812Z,28.09
2023-04-15T03:14:00.835Z,27.69
2023-04-15T03:15:00.870Z,29.73
2023-04-15T03:16:01.025Z,27.38
2023-04-15T03:17:00.928Z,30.59
2023-04-15T03:18:01.045Z,28.12
2023-04-15T03:19:01.372Z,29.71
2023-04-15T03:20:01.035Z,27.44
2023-04-15T03:21:01.058Z,30.21
2023-04-15T03:22:01.076Z,26.77
2023-04-15T03:23:01.138Z,29.36
2023-04-15T03:24:01.126Z,29.13
2023-04-15T03:25:01.162Z,25.63
2023-04-15T03:26:01.185Z,31.35
2023-04-15T03:27:01.217Z,28.39
2023-04-15T03:28:01.246Z,28.02
2023-04-15T03:29:01.525Z,27.81
2023-04-15T03:30:01.305Z,28.00
2023-04-15T03:31:01.394Z,26.47
2023-04-15T03:32:01.355Z,28.10
2023-04-15T03:33:01.524Z,28.12
2023-04-15T03:34:01.442Z,25.96
2023-04-15T03:35:01.436Z,27.80
2023-04-15T03:36:01.459Z,30.01
2023-04-15T03:37:01.475Z,27.50
2023-04-15T03:38:01.498Z,27.67
2023-04-15T03:39:01.820Z,26.84
2023-04-15T03:40:01.553Z,27.35
2023-04-15T03:41:01.576Z,27.52
2023-04-15T03:42:01.603Z,26.71
2023-04-15T03:43:01.612Z,30.27
2023-04-15T03:44:01.628Z,26.51
2023-04-15T03:45:01.647Z,25.98
2023-04-15T03:46:02.106Z,26.83
2023-04-15T03:47:01.686Z,28.53
2023-04-15T03:48:11.382Z,25.00
2023-04-15T03:49:01.927Z,25.32
2023-04-15T03:50:01.724Z,26.80
2023-04-15T03:51:01.713Z,27.95
2023-04-15T03:52:01.768Z,28.48
2023-04-15T03:53:01.713Z,30.71
2023-04-15T03:54:01.774Z,27.56
2023-04-15T03:55:01.739Z,29.14
2023-04-15T03:56:01.787Z,25.00
2023-04-15T03:57:01.725Z,27.33
2023-04-15T03:58:01.711Z,26.60
2023-04-15T03:59:02.005Z,28.03
2023-04-15T04:00:01.740Z,31.24
2023-04-15T04:01:01.705Z,30.07
2023-04-15T04:02:01.825Z,27.51
2023-04-15T04:03:01.928Z,29.04
2023-04-15T04:04:01.772Z,28.42
2023-04-15T04:05:01.693Z,28.20
2023-04-15T04:06:01.689Z,30.03
2023-04-15T04:07:01.682Z,29.91
2023-04-15T04:08:01.671Z,29.10
2023-04-15T04:09:01.900Z,27.41
2023-04-15T04:10:01.684Z,26.98
2023-04-15T04:11:01.711Z,30.26
2023-04-15T04:12:01.762Z,28.09
2023-04-15T04:13:01.657Z,27.02
2023-04-15T04:14:01.653Z,27.44
2023-04-15T04:15:01.744Z,25.93
2023-04-15T04:16:01.761Z,29.49
2023-04-15T04:17:01.718Z,28.63
2023-04-15T04:18:01.737Z,26.64
2023-04-15T04:19:01.813Z,28.56
2023-04-15T04:20:01.647Z,25.88
2023-04-15T04:21:01.622Z,27.14
2023-04-15T04:22:01.673Z,28.06
2023-04-15T04:23:01.622Z,26.91
2023-04-15T04:24:01.667Z,26.23
2023-04-15T04:25:01.639Z,29.10
2023-04-15T04:26:01.627Z,27.39
2023-04-15T04:27:01.660Z,26.94
2023-04-15T04:28:01.680Z,31.34
2023-04-15T04:29:01.905Z,30.78
2023-04-15T04:30:01.625Z,26.63
2023-04-15T04:31:01.625Z,29.63
2023-04-15T04:32:01.713Z,26.84
2023-04-15T04:33:01.665Z,30.93
2023-04-15T04:34:01.625Z,29.76
2023-04-15T04:35:01.629Z,26.94
2023-04-15T04:36:01.634Z,28.18
2023-04-15T04:37:01.632Z,27.68
2023-04-15T04:38:01.622Z,28.07
2023-04-15T04:39:01.802Z,28.65
2023-04-15T04:40:01.638Z,27.81
2023-04-15T04:41:01.664Z,29.20
2023-04-15T04:42:01.636Z,29.98
2023-04-15T04:43:01.705Z,30.59
2023-04-15T04:44:01.633Z,28.79
2023-04-15T04:45:01.639Z,30.04
2023-04-15T04:46:01.653Z,27.91
2023-04-15T04:47:01.634Z,29.15
2023-04-15T04:48:01.738Z,29.34
2023-04-15T04:49:01.939Z,29.51
2023-04-15T04:50:01.651Z,29.13
2023-04-15T04:51:01.626Z,28.41
2023-04-15T04:52:01.753Z,29.54
2023-04-15T04:53:01.634Z,27.01
2023-04-15T04:54:03.537Z,27.59
2023-04-15T04:55:01.721Z,30.98
2023-04-15T04:56:01.632Z,33.83
2023-04-15T04:57:01.631Z,31.53
2023-04-15T04:58:01.721Z,28.50
2023-04-15T04:59:01.864Z,29.86
2023-04-15T05:00:01.693Z,28.70
2023-04-15T05:01:01.683Z,29.34
2023-04-15T05:02:01.715Z,28.97
2023-04-15T05:03:01.833Z,26.86
2023-04-15T05:04:01.763Z,28.28
2023-04-15T05:05:01.630Z,28.52
2023-04-15T05:06:01.634Z,29.35
2023-04-15T05:07:01.639Z,29.36
2023-04-15T05:08:01.638Z,30.49
2023-04-15T05:09:01.812Z,28.78
2023-04-15T05:10:01.744Z,25.00
2023-04-15T05:11:01.633Z,25.99
2023-04-15T05:12:01.635Z,28.41
2023-04-15T05:13:01.636Z,27.15
2023-04-15T05:14:01.624Z,25.00
2023-04-15T05:15:01.650Z,25.00
2023-04-15T05:16:01.669Z,25.00
2023-04-15T05:17:01.622Z,29.24
2023-04-15T05:18:01.788Z,28.50
2023-04-15T05:19:01.808Z,32.08
2023-04-15T05:20:01.643Z,31.77
2023-04-15T05:21:01.619Z,34.83
2023-04-15T05:22:01.618Z,34.77
2023-04-15T05:23:01.615Z,32.79
2023-04-15T05:24:01.608Z,33.26
2023-04-15T05:25:01.626Z,33.65
2023-04-15T05:26:01.678Z,32.23
2023-04-15T05:27:01.637Z,36.94
2023-04-15T05:28:01.612Z,35.26
2023-04-15T05:29:01.970Z,35.05
2023-04-15T05:30:01.610Z,32.50
2023-04-15T05:31:01.737Z,36.17
2023-04-15T05:32:01.702Z,29.08
2023-04-15T05:33:01.727Z,31.44
2023-04-15T05:34:01.732Z,29.33
2023-04-15T05:35:01.779Z,33.13
2023-04-15T05:36:01.795Z,32.23
2023-04-15T05:37:01.814Z,32.42
2023-04-15T05:38:01.852Z,32.45
2023-04-15T05:39:02.082Z,27.58
2023-04-15T05:40:01.977Z,28.22
2023-04-15T05:41:01.956Z,26.92
2023-04-15T05:42:01.967Z,26.95
2023-04-15T05:43:02.015Z,25.03
2023-04-15T05:44:01.989Z,26.94
2023-04-15T05:45:01.989Z,28.59
2023-04-15T05:46:02.463Z,30.24
2023-04-15T05:47:02.014Z,26.52
2023-04-15T05:48:02.050Z,28.20
2023-04-15T05:49:02.221Z,25.03
2023-04-15T05:50:02.004Z,33.51
2023-04-15T05:51:02.018Z,31.44
2023-04-15T05:52:02.008Z,31.04
2023-04-15T05:53:02.006Z,30.68
2023-04-15T05:54:02.008Z,31.96
2023-04-15T05:55:02.013Z,31.37
2023-04-15T05:56:02.023Z,31.15
2023-04-15T05:57:02.036Z,31.76
2023-04-15T05:58:02.013Z,28.41
2023-04-15T05:59:03.064Z,30.29
2023-04-15T06:00:02.370Z,31.75
2023-04-15T06:01:02.042Z,31.46
2023-04-15T06:02:02.125Z,29.43
2023-04-15T06:03:02.177Z,29.11
2023-04-15T06:04:02.192Z,29.63
2023-04-15T06:05:02.397Z,27.37
2023-04-15T06:06:02.284Z,25.57
2023-04-15T06:07:02.256Z,25.32
2023-04-15T06:08:02.286Z,27.40
2023-04-15T06:09:02.581Z,26.65
2023-04-15T06:10:02.362Z,25.96
2023-04-15T06:11:02.398Z,26.82
2023-04-15T06:12:02.426Z,25.53
2023-04-15T06:13:02.453Z,26.24
2023-04-15T06:14:02.500Z,27.78
2023-04-15T06:15:02.527Z,27.32
2023-04-15T06:16:02.593Z,25.00
2023-04-15T06:17:02.603Z,26.85
2023-04-15T06:18:02.685Z,25.00
2023-04-15T06:19:02.910Z,27.82
2023-04-15T06:20:02.733Z,29.01
2023-04-15T06:21:02.753Z,31.28
2023-04-15T06:22:02.776Z,29.65
2023-04-15T06:23:02.815Z,29.96
2023-04-15T06:24:02.876Z,25.00
2023-04-15T06:25:02.897Z,25.49
2023-04-15T06:26:02.922Z,26.03
2023-04-15T06:27:02.942Z,25.33
2023-04-15T06:28:02.951Z,33.32
2023-04-15T06:29:03.187Z,30.17
2023-04-15T06:30:02.960Z,25.79
2023-04-15T06:31:02.953Z,28.49
2023-04-15T06:32:02.957Z,29.13
2023-04-15T06:33:02.980Z,28.74
2023-04-15T06:34:02.951Z,29.14
2023-04-15T06:35:03.004Z,35.24
2023-04-15T06:36:02.960Z,36.28
2023-04-15T06:37:05.133Z,41.21
2023-04-15T06:38:02.987Z,39.58
2023-04-15T06:39:03.176Z,35.18
2023-04-15T06:40:02.930Z,35.79
2023-04-15T06:41:02.917Z,27.96
2023-04-15T06:42:02.911Z,24.76
2023-04-15T06:43:02.896Z,27.56
2023-04-15T06:44:02.905Z,25.00
2023-04-15T06:45:02.890Z,28.60
2023-04-15T06:46:02.970Z,32.68
2023-04-15T06:47:02.898Z,24.46
2023-04-15T06:48:02.871Z,27.13
2023-04-15T06:49:02.978Z,26.59
2023-04-15T06:50:02.842Z,35.74
2023-04-15T06:51:02.849Z,29.03
2023-04-15T06:52:02.831Z,26.87
2023-04-15T06:53:02.801Z,27.18
2023-04-15T06:54:02.806Z,27.87
2023-04-15T06:55:02.798Z,28.08
2023-04-15T06:56:02.784Z,25.00
2023-04-15T06:57:02.776Z,27.54
2023-04-15T06:58:02.763Z,28.29
2023-04-15T06:59:02.876Z,25.00
2023-04-15T07:00:02.773Z,27.73
2023-04-15T07:01:02.804Z,29.04
2023-04-15T07:02:02.761Z,26.44
2023-04-15T07:03:02.791Z,32.31
2023-04-15T07:04:02.768Z,27.92
2023-04-15T07:05:02.753Z,25.80
2023-04-15T07:06:02.730Z,25.29
2023-04-15T07:07:02.759Z,29.02
2023-04-15T07:08:02.729Z,37.75
2023-04-15T07:09:03.018Z,28.73
2023-04-15T07:10:02.705Z,29.93
2023-04-15T07:11:02.698Z,31.33
2023-04-15T07:12:02.692Z,25.80
2023-04-15T07:13:02.684Z,27.52
2023-04-15T07:14:02.678Z,27.26
2023-04-15T07:15:02.672Z,25.00
2023-04-15T07:16:02.674Z,25.71
2023-04-15T07:17:02.709Z,36.83
2023-04-15T07:18:02.737Z,41.84
2023-04-15T07:19:02.788Z,37.04
2023-04-15T07:20:02.656Z,28.43
2023-04-15T07:21:02.675Z,25.97
2023-04-15T07:22:02.652Z,28.91
2023-04-15T07:23:02.690Z,26.89
2023-04-15T07:24:02.646Z,27.80
2023-04-15T07:25:02.654Z,24.70
2023-04-15T07:26:02.635Z,31.03
2023-04-15T07:27:02.648Z,33.10
2023-04-15T07:28:02.640Z,36.39
2023-04-15T07:29:03.006Z,37.62
2023-04-15T07:30:02.625Z,33.86
2023-04-15T07:31:02.639Z,31.06
2023-04-15T07:32:02.610Z,29.65
2023-04-15T07:33:02.609Z,25.00
2023-04-15T07:34:02.603Z,25.46
2023-04-15T07:35:02.592Z,25.00
2023-04-15T07:36:02.579Z,25.77
2023-04-15T07:37:02.572Z,48.42
2023-04-15T07:38:02.560Z,50.95
2023-04-15T07:39:03.115Z,54.86
2023-04-15T07:40:02.540Z,48.20
2023-04-15T07:41:02.555Z,43.86
2023-04-15T07:42:02.648Z,52.93
2023-04-15T07:43:02.522Z,42.13
2023-04-15T07:44:02.522Z,39.63
2023-04-15T07:45:02.518Z,37.12
2023-04-15T07:46:02.568Z,24.31
2023-04-15T07:47:02.544Z,32.53
2023-04-15T07:48:02.600Z,29.72
2023-04-15T07:49:02.701Z,42.01
2023-04-15T07:50:02.475Z,34.64
2023-04-15T07:51:02.483Z,31.07
2023-04-15T07:52:02.464Z,27.33
2023-04-15T07:53:02.458Z,43.12
2023-04-15T07:54:02.448Z,36.10
2023-04-15T07:55:02.472Z,25.71
2023-04-15T07:56:02.480Z,32.15
2023-04-15T07:57:02.413Z,32.99
2023-04-15T07:58:02.419Z,30.80
2023-04-15T07:59:02.743Z,35.10
2023-04-15T08:00:02.397Z,33.75
2023-04-15T08:01:02.394Z,26.29
2023-04-15T08:02:02.459Z,30.78
2023-04-15T08:03:02.542Z,35.98
2023-04-15T08:04:02.601Z,36.88
2023-04-15T08:05:02.436Z,31.70
2023-04-15T08:06:02.413Z,30.67
2023-04-15T08:07:02.433Z,36.60
2023-04-15T08:08:02.458Z,36.23
2023-04-15T08:09:02.658Z,33.38
2023-04-15T08:10:02.543Z,30.75
2023-04-15T08:11:02.575Z,39.68
2023-04-15T08:12:02.583Z,41.98
2023-04-15T08:13:02.615Z,40.21
2023-04-15T08:14:02.647Z,32.60
2023-04-15T08:15:02.675Z,44.19
2023-04-15T08:16:02.753Z,34.19
2023-04-15T08:17:02.736Z,32.38
2023-04-15T08:18:02.760Z,33.39
2023-04-15T08:19:03.066Z,28.79
2023-04-15T08:20:02.799Z,29.08
2023-04-15T08:21:02.794Z,31.67
2023-04-15T08:22:02.804Z,33.30
2023-04-15T08:23:02.794Z,25.88
2023-04-15T08:24:02.791Z,30.91
2023-04-15T08:25:02.790Z,35.60
2023-04-15T08:26:02.839Z,33.58
2023-04-15T08:27:02.812Z,33.39
2023-04-15T08:28:02.778Z,35.53
2023-04-15T08:29:03.042Z,32.52
2023-04-15T08:30:04.692Z,34.86
2023-04-15T08:31:02.775Z,24.67
2023-04-15T08:32:02.768Z,25.00
2023-04-15T08:33:02.809Z,25.98
2023-04-15T08:34:02.746Z,25.00
2023-04-15T08:35:02.727Z,32.10
2023-04-15T08:36:02.709Z,42.62
2023-04-15T08:37:02.695Z,42.30
2023-04-15T08:38:02.691Z,41.37
2023-04-15T08:39:03.037Z,41.45
2023-04-15T08:40:02.670Z,43.10
2023-04-15T08:41:02.654Z,40.33
2023-04-15T08:42:02.739Z,40.88
2023-04-15T08:43:02.664Z,39.22
2023-04-15T08:44:02.628Z,45.97
2023-04-15T08:45:02.725Z,38.31
2023-04-15T08:46:02.608Z,46.90
2023-04-15T08:47:02.853Z,37.94
2023-04-15T08:48:02.640Z,49.13
2023-04-15T08:49:02.728Z,55.90
2023-04-15T08:50:02.587Z,50.11
2023-04-15T08:51:02.570Z,54.62
2023-04-15T08:52:02.565Z,42.49
2023-04-15T08:53:02.566Z,45.89
2023-04-15T08:54:02.582Z,59.04
2023-04-15T08:55:02.562Z,61.10
2023-04-15T08:56:02.529Z,58.71
2023-04-15T08:57:02.522Z,47.86
2023-04-15T08:58:02.537Z,49.83
2023-04-15T08:59:02.690Z,55.94
2023-04-15T09:00:03.828Z,60.34
2023-04-15T09:01:02.525Z,60.46
2023-04-15T09:02:02.538Z,61.46
2023-04-15T09:03:02.553Z,63.47
2023-04-15T09:04:02.523Z,63.98
2023-04-15T09:05:03.438Z,51.54
2023-04-15T09:06:02.466Z,58.99
2023-04-15T09:07:02.452Z,59.97
2023-04-15T09:08:02.538Z,58.28
2023-04-15T09:09:02.611Z,62.29
2023-04-15T09:10:02.438Z,52.07
2023-04-15T09:11:02.408Z,48.93
2023-04-15T09:12:02.408Z,54.89
2023-04-15T09:13:02.397Z,62.63
2023-04-15T09:14:02.400Z,50.06
2023-04-15T09:15:02.401Z,50.54
2023-04-15T09:16:02.367Z,54.44
2023-04-15T09:17:02.495Z,50.60
2023-04-15T09:18:02.382Z,59.10
2023-04-15T09:19:02.531Z,66.67
2023-04-15T09:20:02.337Z,58.47
2023-04-15T09:21:02.325Z,66.63
2023-04-15T09:22:02.321Z,57.59
2023-04-15T09:23:02.314Z,52.64
2023-04-15T09:24:02.510Z,65.13
2023-04-15T09:25:02.302Z,64.83
2023-04-15T09:26:02.287Z,55.83
2023-04-15T09:27:02.284Z,43.94
2023-04-15T09:28:02.344Z,47.08
2023-04-15T09:29:02.266Z,46.57
2023-04-15T09:30:02.315Z,49.86
2023-04-15T09:31:02.297Z,52.22
2023-04-15T09:32:02.239Z,40.43
2023-04-15T09:33:02.335Z,40.01
2023-04-15T09:34:02.467Z,46.32
2023-04-15T09:35:02.285Z,44.67
2023-04-15T09:36:02.204Z,54.25
2023-04-15T09:37:02.205Z,36.71
2023-04-15T09:38:02.185Z,36.80
2023-04-15T09:39:02.183Z,33.38
2023-04-15T09:40:02.212Z,42.54
2023-04-15T09:41:02.161Z,41.65
2023-04-15T09:42:02.152Z,31.42
2023-04-15T09:43:02.150Z,25.00
2023-04-15T09:44:02.329Z,31.34
2023-04-15T09:45:02.132Z,31.58
2023-04-15T09:46:02.155Z,36.17
2023-04-15T09:47:02.268Z,37.75
2023-04-15T09:48:02.171Z,25.00
2023-04-15T09:49:02.132Z,31.56
2023-04-15T09:50:02.272Z,27.65
2023-04-15T09:51:02.124Z,27.87
2023-04-15T09:52:06.170Z,26.88
2023-04-15T09:53:02.087Z,27.42
2023-04-15T09:54:02.242Z,28.35
2023-04-15T09:55:02.066Z,27.07
2023-04-15T09:56:02.086Z,15.41
2023-04-15T09:57:02.049Z,15.36
2023-04-15T09:58:02.048Z,27.26
2023-04-15T09:59:02.063Z,26.07
2023-04-15T10:00:02.036Z,25.00
2023-04-15T10:01:02.102Z,33.67
2023-04-15T10:02:02.022Z,32.17
2023-04-15T10:03:02.152Z,37.61
2023-04-15T10:04:02.394Z,25.47
2023-04-15T10:05:01.991Z,27.64
2023-04-15T10:06:02.049Z,33.63
2023-04-15T10:07:01.964Z,25.52
2023-04-15T10:08:01.976Z,29.14
2023-04-15T10:09:01.944Z,26.38
2023-04-15T10:10:01.978Z,36.08
2023-04-15T10:11:01.989Z,49.10
2023-04-15T10:12:01.916Z,33.89
2023-04-15T10:13:01.910Z,43.24
2023-04-15T10:14:02.349Z,38.75
2023-04-15T10:15:01.925Z,38.09
2023-04-15T10:16:01.959Z,28.63
2023-04-15T10:17:01.891Z,31.15
2023-04-15T10:18:01.971Z,30.21
2023-04-15T10:19:01.952Z,39.02
2023-04-15T10:20:02.052Z,28.12
2023-04-15T10:21:01.979Z,38.28
2023-04-15T10:22:01.986Z,34.87
2023-04-15T10:23:02.058Z,51.16
2023-04-15T10:24:02.241Z,41.31
2023-04-15T10:25:02.076Z,33.55
2023-04-15T10:26:02.094Z,27.11
2023-04-15T10:27:02.110Z,31.54
2023-04-15T10:28:02.157Z,30.10
2023-04-15T10:29:02.156Z,34.47
2023-04-15T10:30:02.177Z,32.62
2023-04-15T10:31:02.247Z,35.15
2023-04-15T10:32:02.220Z,31.74
2023-04-15T10:33:02.406Z,36.49
2023-04-15T10:34:02.557Z,26.84
2023-04-15T10:35:02.310Z,25.00
2023-04-15T10:36:02.311Z,44.90
2023-04-15T10:37:02.323Z,41.59
2023-04-15T10:38:02.348Z,38.97
2023-04-15T10:39:02.374Z,32.82
2023-04-15T10:40:02.399Z,26.10
2023-04-15T10:41:02.410Z,35.36
2023-04-15T10:42:02.434Z,45.67
2023-04-15T10:43:02.465Z,44.42
2023-04-15T10:44:02.837Z,43.45
2023-04-15T10:45:02.509Z,44.23
2023-04-15T10:46:02.532Z,43.35
2023-04-15T10:47:02.550Z,48.01
2023-04-15T10:48:03.789Z,59.96
2023-04-15T10:49:02.584Z,51.36
2023-04-15T10:50:02.702Z,39.20
2023-04-15T10:51:02.657Z,38.74
2023-04-15T10:52:02.635Z,51.91
2023-04-15T10:53:02.660Z,62.12
2023-04-15T10:54:02.690Z,66.25
2023-04-15T10:55:02.703Z,71.90
2023-04-15T10:56:02.721Z,65.21
2023-04-15T10:57:02.782Z,55.18
2023-04-15T10:58:02.763Z,65.76
2023-04-15T10:59:02.789Z,53.19
2023-04-15T11:00:02.813Z,49.54
2023-04-15T11:01:03.000Z,38.85
2023-04-15T11:02:02.913Z,39.00
2023-04-15T11:03:03.045Z,36.04
2023-04-15T11:04:03.474Z,35.65
2023-04-15T11:05:02.936Z,42.46
2023-04-15T11:06:03.505Z,46.76
2023-04-15T11:07:03.014Z,39.68
2023-04-15T11:08:02.995Z,40.63
2023-04-15T11:09:03.011Z,38.50
2023-04-15T11:10:03.083Z,36.71
2023-04-15T11:11:03.069Z,39.74
2023-04-15T11:12:03.091Z,31.67
2023-04-15T11:13:03.111Z,30.45
2023-04-15T11:14:03.438Z,31.77
2023-04-15T11:15:03.149Z,31.61
2023-04-15T11:16:03.302Z,22.54
2023-04-15T11:17:03.182Z,26.83
2023-04-15T11:18:03.251Z,48.28
2023-04-15T11:19:03.219Z,48.29
2023-04-15T11:20:03.266Z,41.90
2023-04-15T11:21:03.257Z,50.49
2023-04-15T11:22:03.273Z,39.88
2023-04-15T11:23:13.944Z,35.68
2023-04-15T11:24:04.030Z,35.91
2023-04-15T11:25:03.290Z,36.09
2023-04-15T11:26:03.274Z,37.88
2023-04-15T11:27:03.259Z,40.10
2023-04-15T11:28:03.266Z,37.43
2023-04-15T11:29:03.457Z,50.59
2023-04-15T11:30:03.303Z,67.09
2023-04-15T11:31:03.213Z,65.25
2023-04-15T11:32:03.228Z,72.01
2023-04-15T11:33:03.219Z,71.75
2023-04-15T11:34:03.186Z,75.72
2023-04-15T11:35:03.174Z,62.03
2023-04-15T11:36:03.158Z,65.26
2023-04-15T11:37:03.152Z,74.74
2023-04-15T11:38:03.148Z,70.17
2023-04-15T11:39:03.149Z,73.54
2023-04-15T11:40:03.210Z,76.82
2023-04-15T11:41:03.110Z,89.19
2023-04-15T11:42:03.091Z,91.94
2023-04-15T11:43:03.072Z,79.75
2023-04-15T11:44:03.305Z,88.54
2023-04-15T11:45:03.050Z,90.85
2023-04-15T11:46:03.081Z,107.02
2023-04-15T11:47:03.050Z,119.32
2023-04-15T11:48:03.065Z,118.51
2023-04-15T11:49:03.084Z,113.21
2023-04-15T11:50:03.104Z,119.49
2023-04-15T11:51:03.121Z,114.08
2023-04-15T11:52:03.131Z,125.08
2023-04-15T11:53:03.149Z,121.54
2023-04-15T11:54:03.459Z,136.96
2023-04-15T11:55:03.198Z,135.47
2023-04-15T11:56:03.189Z,131.70
2023-04-15T11:57:03.227Z,129.87
2023-04-15T11:58:03.248Z,118.45
2023-04-15T11:59:03.270Z,131.28
2023-04-15T12:00:03.294Z,133.40
2023-04-15T12:01:03.285Z,123.84
2023-04-15T12:02:03.365Z,121.16
2023-04-15T12:03:03.506Z,133.87
2023-04-15T12:04:03.903Z,142.27
2023-04-15T12:05:03.392Z,122.72
2023-04-15T12:06:03.288Z,155.65
2023-04-15T12:07:03.278Z,144.82
2023-04-15T12:08:03.528Z,131.02
2023-04-15T12:09:03.270Z,130.56
2023-04-15T12:10:03.268Z,114.43
2023-04-15T12:11:03.272Z,134.24
2023-04-15T12:12:03.265Z,148.95
2023-04-15T12:13:03.234Z,163.81
2023-04-15T12:14:03.445Z,161.55
2023-04-15T12:15:03.242Z,131.77
2023-04-15T12:16:03.279Z,147.39
2023-04-15T12:17:03.246Z,144.14
2023-04-15T12:18:03.248Z,134.00
2023-04-15T12:19:03.211Z,140.78
2023-04-15T12:20:03.241Z,153.48
2023-04-15T12:21:03.188Z,144.01
2023-04-15T12:22:04.005Z,161.85
2023-04-15T12:23:03.167Z,166.11
2023-04-15T12:24:03.406Z,164.26
2023-04-15T12:25:03.150Z,146.62
2023-04-15T12:26:03.140Z,143.47
2023-04-15T12:27:03.156Z,130.65
2023-04-15T12:28:03.124Z,126.62
2023-04-15T12:29:03.113Z,137.20
2023-04-15T12:30:03.153Z,140.28
2023-04-15T12:31:03.156Z,129.62
2023-04-15T12:32:03.099Z,121.80
2023-04-15T12:33:03.209Z,123.85
2023-04-15T12:34:03.413Z,127.23
2023-04-15T12:35:03.079Z,126.29
2023-04-15T12:36:03.107Z,130.18
2023-04-15T12:37:03.075Z,129.17
2023-04-15T12:38:03.071Z,131.69
2023-04-15T12:39:03.080Z,135.67
2023-04-15T12:40:03.108Z,140.55
2023-04-15T12:41:03.067Z,143.48
2023-04-15T12:42:03.075Z,144.05
2023-04-15T12:43:03.074Z,148.49
2023-04-15T12:44:03.390Z,142.49
2023-04-15T12:45:03.050Z,152.48
2023-04-15T12:46:03.062Z,137.46
2023-04-15T12:47:03.227Z,128.32
2023-04-15T12:48:03.122Z,146.50
2023-04-15T12:49:03.161Z,145.01
2023-04-15T12:50:03.209Z,146.90
2023-04-15T12:51:05.570Z,143.24